Terminal Aerodrome Forecast
Issued by NWS Quad Cities IA IL

Home | Current Version | Previous Version | Text Only | Print | Product List | Glossary On
Versions: 1 2 3 4 5 6 7 8 9 10 11 12 13 14 15 16 17 18 19 20 21
000
FTUS43 KDVN 211121
TAFMLI
TAF
KMLI 211121Z 2112/2212 18014G20KT P6SM BKN080 WS020/21045KT
     FM211500 17013G19KT P6SM BKN060
     FM220200 18014G22KT P6SM VCSH BKN040 PROB30 2203/2207 4SM -TSRA
      OVC020CB
     FM220700 20013KT P6SM -SHRA BKN010=

USA.gov is the U.S. government's official web portal to all federal, state and local government web resources and services.